createdAt,value
2017-12-17T00:00:09.506Z,7.6
2017-12-17T00:01:11.903Z,7.6
2017-12-17T00:02:14.320Z,7.7
2017-12-17T00:03:16.724Z,7.7
2017-12-17T00:04:19.418Z,7.7
2017-12-17T00:05:21.823Z,7.7
2017-12-17T00:06:24.514Z,7.7
2017-12-17T00:07:26.910Z,7.7
2017-12-17T00:08:29.328Z,7.7
2017-12-17T00:09:31.732Z,7.8
2017-12-17T00:10:34.148Z,7.8
2017-12-17T00:11:37.128Z,7.8
2017-12-17T00:12:39.534Z,7.8
2017-12-17T00:13:41.950Z,7.8
2017-12-17T00:14:44.652Z,7.8
2017-12-17T00:15:47.056Z,7.8
2017-12-17T00:16:49.460Z,7.8
2017-12-17T00:17:52.170Z,7.8
2017-12-17T00:18:54.593Z,7.8
2017-12-17T00:19:56.991Z,7.8
2017-12-17T00:20:59.399Z,7.8
2017-12-17T00:22:01.803Z,7.8
2017-12-17T00:23:04.217Z,7.7
2017-12-17T00:24:06.624Z,7.6
2017-12-17T00:25:09.033Z,7.6
2017-12-17T00:26:11.433Z,7.6
2017-12-17T00:27:13.844Z,7.6
2017-12-17T00:28:16.244Z,7.6
2017-12-17T00:29:18.959Z,7.6
2017-12-17T00:30:21.360Z,7.6
2017-12-17T00:31:23.762Z,7.5
2017-12-17T00:32:26.166Z,7.5
2017-12-17T00:33:28.578Z,7.5
2017-12-17T00:34:30.980Z,7.5
2017-12-17T00:35:33.389Z,7.5
2017-12-17T00:36:36.078Z,7.5
2017-12-17T00:37:38.488Z,7.5
2017-12-17T00:38:40.895Z,7.5
2017-12-17T00:39:43.302Z,7.4
2017-12-17T00:40:45.698Z,7.4
2017-12-17T00:41:48.113Z,7.4
2017-12-17T00:42:50.521Z,7.4
2017-12-17T00:43:52.935Z,7.4
2017-12-17T00:44:55.340Z,7.4
2017-12-17T00:45:57.745Z,7.4
2017-12-17T00:47:00.443Z,7.5
2017-12-17T00:48:02.864Z,7.4
2017-12-17T00:49:05.276Z,7.4
2017-12-17T00:50:07.687Z,7.4
2017-12-17T00:51:10.095Z,7.5
2017-12-17T00:52:12.780Z,7.4
2017-12-17T00:53:15.192Z,7.5
2017-12-17T00:54:17.627Z,7.5
2017-12-17T00:55:19.994Z,7.5
2017-12-17T00:56:22.402Z,7.5
2017-12-17T00:57:24.807Z,7.5
2017-12-17T00:58:27.222Z,7.5
2017-12-17T00:59:29.633Z,7.5
2017-12-17T01:00:32.320Z,7.5
2017-12-17T01:01:34.731Z,7.5
2017-12-17T01:02:37.137Z,7.5
2017-12-17T01:03:39.539Z,7.5
2017-12-17T01:04:41.949Z,7.6
2017-12-17T01:05:44.345Z,7.5
2017-12-17T01:06:46.751Z,7.5
2017-12-17T01:07:49.164Z,7.5
2017-12-17T01:08:51.559Z,7.6
2017-12-17T01:09:53.971Z,7.5
2017-12-17T01:10:56.377Z,7.6
2017-12-17T01:11:58.787Z,7.6
2017-12-17T01:13:01.211Z,7.6
2017-12-17T01:14:03.895Z,7.6
2017-12-17T01:15:06.295Z,7.6
2017-12-17T01:16:08.709Z,7.6
2017-12-17T01:17:11.113Z,7.6
2017-12-17T01:18:13.526Z,7.6
2017-12-17T01:19:16.504Z,7.6
2017-12-17T01:20:19.200Z,7.6
2017-12-17T01:21:21.605Z,7.6
2017-12-17T01:22:24.295Z,7.6
2017-12-17T01:23:26.984Z,7.6
2017-12-17T01:24:29.403Z,7.6
2017-12-17T01:25:31.812Z,7.6
2017-12-17T01:26:34.228Z,7.6
2017-12-17T01:27:36.622Z,7.6
2017-12-17T01:28:39.031Z,7.6
2017-12-17T01:29:41.440Z,7.5
2017-12-17T01:30:43.862Z,7.5
2017-12-17T01:31:46.263Z,7.5
2017-12-17T01:32:48.672Z,7.5
2017-12-17T01:33:51.084Z,7.4
2017-12-17T01:34:53.772Z,7.4
2017-12-17T01:35:56.180Z,7.4
2017-12-17T01:36:58.593Z,7.4
2017-12-17T01:38:01.281Z,7.4
2017-12-17T01:39:03.690Z,7.4
2017-12-17T01:40:06.100Z,7.4
2017-12-17T01:41:08.513Z,7.4
2017-12-17T01:42:10.907Z,7.4
2017-12-17T01:43:13.890Z,7.4
2017-12-17T01:44:16.299Z,7.4
2017-12-17T01:45:18.710Z,7.4
2017-12-17T01:46:21.118Z,7.3
2017-12-17T01:47:23.528Z,7.4
2017-12-17T01:48:25.933Z,7.3
2017-12-17T01:49:28.330Z,7.3
2017-12-17T01:50:30.736Z,7.3
2017-12-17T01:51:33.147Z,7.3
2017-12-17T01:52:35.548Z,7.2
2017-12-17T01:53:37.952Z,7.2
2017-12-17T01:54:40.366Z,7.2
2017-12-17T01:55:42.772Z,7.2
2017-12-17T01:56:45.254Z,7.1
2017-12-17T01:57:47.598Z,7.1
2017-12-17T01:58:49.994Z,7.1
2017-12-17T01:59:52.411Z,7
2017-12-17T02:00:55.217Z,7
2017-12-17T02:01:57.629Z,7
2017-12-17T02:03:00.328Z,7
2017-12-17T02:04:03.009Z,6.9
2017-12-17T02:05:05.419Z,6.9
2017-12-17T02:06:07.839Z,6.9
2017-12-17T02:07:10.239Z,6.9
2017-12-17T02:08:12.643Z,6.9
2017-12-17T02:09:15.051Z,6.9
2017-12-17T02:10:17.450Z,6.9
2017-12-17T02:11:19.860Z,6.9
2017-12-17T02:12:22.267Z,6.9
2017-12-17T02:13:24.668Z,6.9
2017-12-17T02:14:27.074Z,6.8
2017-12-17T02:15:29.491Z,6.8
2017-12-17T02:16:32.179Z,6.8
2017-12-17T02:17:34.580Z,6.8
2017-12-17T02:18:36.984Z,6.8
2017-12-17T02:19:39.389Z,6.8
2017-12-17T02:20:41.794Z,6.7
2017-12-17T02:21:44.204Z,6.7
2017-12-17T02:22:46.602Z,6.7
2017-12-17T02:23:49.005Z,6.7
2017-12-17T02:24:51.713Z,6.7
2017-12-17T02:25:54.398Z,6.7
2017-12-17T02:26:57.092Z,6.7
2017-12-17T02:27:59.496Z,6.7
2017-12-17T02:29:01.896Z,6.7
2017-12-17T02:30:04.318Z,6.6
2017-12-17T02:31:06.725Z,6.6
2017-12-17T02:32:09.122Z,6.6
2017-12-17T02:33:11.528Z,6.6
2017-12-17T02:34:13.940Z,6.6
2017-12-17T02:35:16.627Z,6.6
2017-12-17T02:36:19.316Z,6.6
2017-12-17T02:37:22.074Z,6.6
2017-12-17T02:38:24.935Z,6.6
2017-12-17T02:39:27.356Z,6.6
2017-12-17T02:40:30.050Z,6.6
2017-12-17T02:41:32.736Z,6.5
2017-12-17T02:42:35.426Z,6.5
2017-12-17T02:43:38.136Z,6.5
2017-12-17T02:44:40.832Z,6.5
2017-12-17T02:45:43.238Z,6.5
2017-12-17T02:46:45.935Z,6.5
2017-12-17T02:47:48.339Z,6.5
2017-12-17T02:48:50.751Z,6.5
2017-12-17T02:49:53.153Z,6.5
2017-12-17T02:50:56.015Z,6.5
2017-12-17T02:51:59.255Z,6.5
2017-12-17T02:53:02.044Z,6.6
2017-12-17T02:54:05.014Z,6.5
2017-12-17T02:55:07.422Z,6.5
2017-12-17T02:56:10.199Z,6.5
2017-12-17T02:57:12.908Z,6.6
2017-12-17T02:58:15.305Z,6.5
2017-12-17T02:59:17.763Z,6.5
2017-12-17T03:00:20.667Z,6.5
2017-12-17T03:01:23.351Z,6.5
2017-12-17T03:02:25.964Z,6.5
2017-12-17T03:03:28.922Z,6.6
2017-12-17T03:04:31.884Z,6.6
2017-12-17T03:05:35.709Z,6.6
2017-12-17T03:06:38.399Z,6.6
2017-12-17T03:07:41.065Z,6.6
2017-12-17T03:08:43.801Z,6.6
2017-12-17T03:09:46.773Z,6.7
2017-12-17T03:10:49.706Z,6.7
2017-12-17T03:11:52.514Z,6.6
2017-12-17T03:12:55.202Z,6.6
2017-12-17T03:13:57.974Z,6.6
2017-12-17T03:15:00.582Z,6.7
2017-12-17T03:16:03.011Z,6.7
2017-12-17T03:17:05.444Z,6.7
2017-12-17T03:18:07.980Z,6.7
2017-12-17T03:19:10.560Z,6.7
2017-12-17T03:20:13.798Z,6.7
2017-12-17T03:21:16.618Z,6.7
2017-12-17T03:22:19.145Z,6.7
2017-12-17T03:23:21.638Z,6.7
2017-12-17T03:24:24.421Z,6.7
2017-12-17T03:25:27.210Z,6.7
2017-12-17T03:26:29.720Z,6.7
2017-12-17T03:27:33.261Z,6.7
2017-12-17T03:28:35.805Z,6.7
2017-12-17T03:29:38.381Z,6.7
2017-12-17T03:30:41.194Z,6.8
2017-12-17T03:31:43.671Z,6.8
2017-12-17T03:32:46.165Z,6.8
2017-12-17T03:33:48.732Z,6.8
2017-12-17T03:34:51.224Z,6.8
2017-12-17T03:35:53.636Z,6.8
2017-12-17T03:36:56.042Z,6.8
2017-12-17T03:37:58.739Z,6.8
2017-12-17T03:39:01.159Z,6.8
2017-12-17T03:40:03.568Z,6.8
2017-12-17T03:41:06.262Z,6.8
2017-12-17T03:42:08.986Z,6.8
2017-12-17T03:43:11.396Z,6.8
2017-12-17T03:44:13.798Z,6.8
2017-12-17T03:45:16.207Z,6.8
2017-12-17T03:46:18.626Z,6.9
2017-12-17T03:47:21.027Z,6.9
2017-12-17T03:48:23.444Z,6.8
2017-12-17T03:49:25.852Z,6.8
2017-12-17T03:50:28.262Z,6.8
2017-12-17T03:51:30.998Z,6.8
2017-12-17T03:52:33.403Z,6.8
2017-12-17T03:53:35.797Z,6.8
2017-12-17T03:54:38.211Z,6.8
2017-12-17T03:55:40.622Z,6.8
2017-12-17T03:56:43.035Z,6.7
2017-12-17T03:57:45.441Z,6.7
2017-12-17T03:58:47.849Z,6.7
2017-12-17T03:59:50.257Z,6.7
2017-12-17T04:00:52.664Z,6.7
2017-12-17T04:01:55.071Z,6.7
2017-12-17T04:02:57.479Z,6.8
2017-12-17T04:03:59.876Z,6.7
2017-12-17T04:05:02.294Z,6.8
2017-12-17T04:06:04.694Z,6.8
2017-12-17T04:07:07.214Z,6.8
2017-12-17T04:08:09.829Z,6.8
2017-12-17T04:09:12.235Z,6.8
2017-12-17T04:10:14.638Z,6.8
2017-12-17T04:11:17.051Z,6.8
2017-12-17T04:12:19.454Z,6.8
2017-12-17T04:13:21.871Z,6.8
2017-12-17T04:14:24.282Z,6.8
2017-12-17T04:15:26.689Z,6.8
2017-12-17T04:16:29.098Z,6.8
2017-12-17T04:17:31.800Z,6.8
2017-12-17T04:18:34.207Z,6.8
2017-12-17T04:19:36.603Z,6.8
2017-12-17T04:20:39.020Z,6.8
2017-12-17T04:21:41.418Z,6.8
2017-12-17T04:22:43.823Z,6.8
2017-12-17T04:23:46.229Z,6.8
2017-12-17T04:24:48.629Z,6.9
2017-12-17T04:25:51.037Z,6.9
2017-12-17T04:26:53.459Z,6.9
2017-12-17T04:27:55.854Z,6.9
2017-12-17T04:28:58.565Z,6.9
2017-12-17T04:30:00.969Z,7
2017-12-17T04:31:03.376Z,7
2017-12-17T04:32:05.777Z,6.9
2017-12-17T04:33:08.470Z,7
2017-12-17T04:34:10.875Z,7
2017-12-17T04:35:13.285Z,7
2017-12-17T04:36:15.681Z,7
2017-12-17T04:37:18.096Z,7.1
2017-12-17T04:38:20.494Z,7
2017-12-17T04:39:22.909Z,7
2017-12-17T04:40:25.311Z,7.1
2017-12-17T04:41:27.726Z,7.1
2017-12-17T04:42:30.132Z,7.1
2017-12-17T04:43:32.545Z,7.1
2017-12-17T04:44:34.945Z,7.1
2017-12-17T04:45:37.359Z,7.2
2017-12-17T04:46:39.769Z,7.1
2017-12-17T04:47:42.462Z,7.1
2017-12-17T04:48:44.870Z,7.2
2017-12-17T04:49:47.569Z,7.1
2017-12-17T04:50:49.977Z,7.1
2017-12-17T04:51:52.392Z,7.1
2017-12-17T04:52:54.788Z,7.1
2017-12-17T04:53:57.195Z,7.1
2017-12-17T04:54:59.608Z,7.1
2017-12-17T04:56:02.300Z,7.1
2017-12-17T04:57:04.715Z,7.1
2017-12-17T04:58:07.128Z,7.1
2017-12-17T04:59:09.536Z,7.1
2017-12-17T05:00:11.947Z,7.1
2017-12-17T05:01:14.351Z,7.1
2017-12-17T05:02:17.023Z,7.1
2017-12-17T05:03:19.432Z,7.1
2017-12-17T05:04:21.851Z,7.1
2017-12-17T05:05:24.257Z,7.1
2017-12-17T05:06:26.661Z,7.1
2017-12-17T05:07:29.070Z,7.1
2017-12-17T05:08:31.483Z,7.1
2017-12-17T05:09:33.902Z,7.1
2017-12-17T05:10:36.308Z,7.1
2017-12-17T05:11:38.708Z,7.1
2017-12-17T05:12:41.120Z,7.1
2017-12-17T05:13:43.536Z,7.1
2017-12-17T05:14:45.951Z,7.1
2017-12-17T05:15:48.351Z,7.1
2017-12-17T05:16:50.759Z,7.1
2017-12-17T05:17:53.161Z,7.1
2017-12-17T05:18:55.569Z,7.1
2017-12-17T05:19:57.973Z,7.1
2017-12-17T05:21:00.680Z,7.1
2017-12-17T05:22:03.086Z,7.1
2017-12-17T05:23:05.497Z,7.2
2017-12-17T05:24:07.902Z,7.2
2017-12-17T05:25:10.313Z,7.2
2017-12-17T05:26:12.718Z,7.2
2017-12-17T05:27:15.439Z,7.2
2017-12-17T05:28:17.841Z,7.2
2017-12-17T05:29:20.246Z,7.2
2017-12-17T05:30:22.950Z,7.2
2017-12-17T05:31:25.654Z,7.2
2017-12-17T05:32:28.061Z,7.3
2017-12-17T05:33:30.475Z,7.3
2017-12-17T05:34:33.434Z,7.3
2017-12-17T05:35:35.854Z,7.2
2017-12-17T05:36:38.281Z,7.3
2017-12-17T05:37:40.943Z,7.2
2017-12-17T05:38:43.355Z,7.2
2017-12-17T05:39:45.844Z,7.2
2017-12-17T05:40:48.168Z,7.2
2017-12-17T05:41:50.567Z,7.2
2017-12-17T05:42:52.987Z,7.2
2017-12-17T05:43:55.394Z,7.2
2017-12-17T05:44:57.798Z,7.2
2017-12-17T05:46:00.207Z,7.1
2017-12-17T05:47:02.610Z,7.1
2017-12-17T05:48:05.024Z,7.1
2017-12-17T05:49:07.434Z,7.1
2017-12-17T05:50:09.835Z,7.1
2017-12-17T05:51:12.242Z,7.1
2017-12-17T05:52:14.968Z,7.1
2017-12-17T05:53:17.378Z,7.1
2017-12-17T05:54:19.786Z,7.1
2017-12-17T05:55:22.193Z,7
2017-12-17T05:56:24.882Z,7
2017-12-17T05:57:27.288Z,7
2017-12-17T05:58:29.695Z,7
2017-12-17T05:59:32.098Z,7
2017-12-17T06:00:34.503Z,7
2017-12-17T06:01:36.915Z,6.9
2017-12-17T06:02:39.321Z,6.9
2017-12-17T06:03:42.016Z,6.9
2017-12-17T06:04:44.425Z,6.9
2017-12-17T06:05:46.831Z,6.8
2017-12-17T06:06:49.251Z,6.8
2017-12-17T06:07:51.651Z,6.8
2017-12-17T06:08:54.047Z,6.8
2017-12-17T06:09:56.454Z,6.8
2017-12-17T06:10:58.861Z,6.8
2017-12-17T06:12:01.269Z,6.8
2017-12-17T06:13:03.668Z,6.8
2017-12-17T06:14:06.078Z,6.8
2017-12-17T06:15:08.487Z,6.9
2017-12-17T06:16:10.882Z,6.9
2017-12-17T06:17:13.291Z,6.9
2017-12-17T06:18:15.702Z,6.9
2017-12-17T06:19:18.123Z,6.9
2017-12-17T06:20:20.560Z,6.9
2017-12-17T06:21:22.971Z,6.9
2017-12-17T06:22:25.375Z,6.9
2017-12-17T06:23:27.787Z,6.9
2017-12-17T06:24:30.469Z,6.9
2017-12-17T06:25:32.866Z,7
2017-12-17T06:26:35.273Z,6.9
2017-12-17T06:27:37.680Z,6.9
2017-12-17T06:28:40.372Z,6.9
2017-12-17T06:29:42.779Z,7
2017-12-17T06:30:45.188Z,7
2017-12-17T06:31:47.596Z,7
2017-12-17T06:32:50.014Z,7
2017-12-17T06:33:52.411Z,7
2017-12-17T06:34:54.826Z,7
2017-12-17T06:35:57.243Z,7
2017-12-17T06:37:00.213Z,7
2017-12-17T06:38:02.617Z,7
2017-12-17T06:39:05.029Z,7
2017-12-17T06:40:07.470Z,7
2017-12-17T06:41:09.841Z,7
2017-12-17T06:42:12.262Z,7
2017-12-17T06:43:14.675Z,6.9
2017-12-17T06:44:17.358Z,7
2017-12-17T06:45:20.068Z,6.9
2017-12-17T06:46:22.474Z,6.9
2017-12-17T06:47:24.873Z,6.9
2017-12-17T06:48:27.289Z,6.9
2017-12-17T06:49:29.688Z,6.9
2017-12-17T06:50:32.099Z,6.9
2017-12-17T06:51:34.504Z,6.9
2017-12-17T06:52:37.199Z,6.9
2017-12-17T06:53:39.603Z,6.9
2017-12-17T06:54:42.020Z,6.9
2017-12-17T06:55:44.701Z,7
2017-12-17T06:56:47.116Z,7
2017-12-17T06:57:49.522Z,7
2017-12-17T06:58:51.928Z,7
2017-12-17T06:59:54.329Z,7
2017-12-17T07:00:56.746Z,7
2017-12-17T07:01:59.155Z,7
2017-12-17T07:03:01.844Z,7
2017-12-17T07:04:04.247Z,7
2017-12-17T07:05:06.655Z,7
2017-12-17T07:06:09.061Z,7
2017-12-17T07:07:11.477Z,7
2017-12-17T07:08:13.866Z,7
2017-12-17T07:09:16.277Z,7
2017-12-17T07:10:18.693Z,7
2017-12-17T07:11:21.103Z,7
2017-12-17T07:12:23.508Z,7
2017-12-17T07:13:25.908Z,7.1
2017-12-17T07:14:28.321Z,7
2017-12-17T07:15:30.731Z,7.1
2017-12-17T07:16:33.142Z,7.1
2017-12-17T07:17:35.549Z,7.1
2017-12-17T07:18:37.984Z,7.1
2017-12-17T07:19:40.393Z,7.1
2017-12-17T07:20:42.801Z,7.1
2017-12-17T07:21:45.207Z,7.1
2017-12-17T07:22:47.616Z,7.1
2017-12-17T07:23:50.021Z,7.1
2017-12-17T07:24:52.441Z,7.1
2017-12-17T07:25:55.128Z,7.1
2017-12-17T07:26:57.535Z,7.1
2017-12-17T07:28:00.226Z,7.1
2017-12-17T07:29:02.639Z,7.1
2017-12-17T07:30:05.053Z,7.1
2017-12-17T07:31:07.467Z,7.1
2017-12-17T07:32:09.866Z,7.1
2017-12-17T07:33:12.289Z,7.2
2017-12-17T07:34:14.701Z,7.2
2017-12-17T07:35:17.110Z,7.2
2017-12-17T07:36:19.517Z,7.3
2017-12-17T07:37:21.928Z,7.3
2017-12-17T07:38:24.330Z,7.3
2017-12-17T07:39:26.753Z,7.3
2017-12-17T07:40:29.160Z,7.3
2017-12-17T07:41:31.565Z,7.3
2017-12-17T07:42:33.972Z,7.3
2017-12-17T07:43:36.387Z,7.3
2017-12-17T07:44:38.795Z,7.3
2017-12-17T07:45:41.200Z,7.3
2017-12-17T07:46:43.608Z,7.3
2017-12-17T07:47:46.010Z,7.3
2017-12-17T07:48:48.726Z,7.3
2017-12-17T07:49:51.131Z,7.3
2017-12-17T07:50:53.530Z,7.3
2017-12-17T07:51:55.941Z,7.3
2017-12-17T07:52:58.353Z,7.3
2017-12-17T07:54:00.760Z,7.3
2017-12-17T07:55:03.180Z,7.3
2017-12-17T07:56:05.863Z,7.3
2017-12-17T07:57:08.274Z,7.2
2017-12-17T07:58:10.685Z,7.2
2017-12-17T07:59:13.649Z,7.2
2017-12-17T08:00:16.075Z,7.2
2017-12-17T08:01:18.466Z,7.2
2017-12-17T08:02:20.869Z,7.3
2017-12-17T08:03:23.286Z,7.3
2017-12-17T08:04:25.693Z,7.3
2017-12-17T08:05:28.676Z,7.3
2017-12-17T08:06:31.095Z,7.3
2017-12-17T08:07:33.502Z,7.4
2017-12-17T08:08:35.914Z,7.4
2017-12-17T08:09:38.325Z,7.4
2017-12-17T08:10:40.736Z,7.4
2017-12-17T08:11:43.151Z,7.4
2017-12-17T08:12:45.838Z,7.4
2017-12-17T08:13:48.543Z,7.4
2017-12-17T08:14:50.954Z,7.4
2017-12-17T08:15:53.363Z,7.4
2017-12-17T08:16:55.765Z,7.4
2017-12-17T08:17:58.182Z,7.4
2017-12-17T08:19:00.593Z,7.4
2017-12-17T08:20:03.010Z,7.4
2017-12-17T08:21:05.412Z,7.4
2017-12-17T08:22:07.811Z,7.5
2017-12-17T08:23:10.226Z,7.4
2017-12-17T08:24:12.644Z,7.5
2017-12-17T08:25:15.053Z,7.5
2017-12-17T08:26:17.468Z,7.5
2017-12-17T08:27:19.867Z,7.5
2017-12-17T08:28:22.279Z,7.5
2017-12-17T08:29:24.719Z,7.5
2017-12-17T08:30:27.109Z,7.5
2017-12-17T08:31:29.510Z,7.5
2017-12-17T08:32:31.926Z,7.5
2017-12-17T08:33:34.328Z,7.6
2017-12-17T08:34:36.744Z,7.6
2017-12-17T08:35:39.479Z,7.6
2017-12-17T08:36:42.503Z,7.6
2017-12-17T08:37:44.918Z,7.7
2017-12-17T08:38:47.339Z,7.7
2017-12-17T08:39:50.028Z,7.7
2017-12-17T08:40:52.732Z,7.7
2017-12-17T08:41:55.141Z,7.7
2017-12-17T08:42:57.552Z,7.8
2017-12-17T08:44:00.536Z,7.8
2017-12-17T08:45:02.945Z,7.9
2017-12-17T08:46:05.364Z,7.9
2017-12-17T08:47:08.070Z,8
2017-12-17T08:48:10.494Z,8
2017-12-17T08:49:12.911Z,8.1
2017-12-17T08:50:15.328Z,8.1
2017-12-17T08:51:17.735Z,8.1
2017-12-17T08:52:20.149Z,8.2
2017-12-17T08:53:22.554Z,8.2
2017-12-17T08:54:24.972Z,8.2
2017-12-17T08:55:27.364Z,8.2
2017-12-17T08:56:30.063Z,8.3
2017-12-17T08:57:32.474Z,8.3
2017-12-17T08:58:35.170Z,8.3
2017-12-17T08:59:37.580Z,8.3
2017-12-17T09:00:40.008Z,8.3
2017-12-17T09:01:42.984Z,8.3
2017-12-17T09:02:45.407Z,8.4
2017-12-17T09:03:47.817Z,8.4
2017-12-17T09:04:50.234Z,8.4
2017-12-17T09:05:52.652Z,8.4
2017-12-17T09:06:55.072Z,8.4
2017-12-17T09:07:57.749Z,8.4
2017-12-17T09:09:00.165Z,8.4
2017-12-17T09:10:02.574Z,8.5
2017-12-17T09:11:04.986Z,8.4
2017-12-17T09:12:07.461Z,8.4
2017-12-17T09:13:09.817Z,8.5
2017-12-17T09:14:12.222Z,8.5
2017-12-17T09:15:14.629Z,8.5
2017-12-17T09:16:17.046Z,8.5
2017-12-17T09:17:19.469Z,8.6
2017-12-17T09:18:21.867Z,8.6
2017-12-17T09:19:24.270Z,8.6
2017-12-17T09:20:26.683Z,8.6
2017-12-17T09:21:29.382Z,8.7
2017-12-17T09:22:32.084Z,8.7
2017-12-17T09:23:34.489Z,8.7
2017-12-17T09:24:36.898Z,8.7
2017-12-17T09:25:39.310Z,8.8
2017-12-17T09:26:41.724Z,8.8
2017-12-17T09:27:44.138Z,8.8
2017-12-17T09:28:46.839Z,8.8
2017-12-17T09:29:49.537Z,8.8
2017-12-17T09:30:51.950Z,8.9
2017-12-17T09:31:54.360Z,8.9
2017-12-17T09:32:56.770Z,8.9
2017-12-17T09:33:59.170Z,8.9
2017-12-17T09:35:01.871Z,8.9
2017-12-17T09:36:04.295Z,8.9
2017-12-17T09:37:06.702Z,8.9
2017-12-17T09:38:09.108Z,9
2017-12-17T09:39:11.515Z,9
2017-12-17T09:40:14.219Z,9
2017-12-17T09:41:16.633Z,9
2017-12-17T09:42:19.048Z,9.1
2017-12-17T09:43:21.466Z,9.1
2017-12-17T09:44:23.880Z,9.1
2017-12-17T09:45:26.282Z,9.1
2017-12-17T09:46:28.702Z,9.1
2017-12-17T09:47:31.102Z,9.1
2017-12-17T09:48:33.510Z,9.1
2017-12-17T09:49:35.920Z,9.1
2017-12-17T09:50:38.332Z,9.1
2017-12-17T09:51:40.736Z,9.1
2017-12-17T09:52:43.154Z,9.2
2017-12-17T09:53:45.561Z,9.1
2017-12-17T09:54:47.969Z,9.2
2017-12-17T09:55:50.683Z,9.1
2017-12-17T09:56:53.088Z,9.1
2017-12-17T09:57:55.506Z,9.2
2017-12-17T09:58:57.922Z,9.1
2017-12-17T10:00:00.336Z,9.1
2017-12-17T10:01:02.759Z,9.1
2017-12-17T10:02:05.165Z,9.1
2017-12-17T10:03:07.579Z,9.1
2017-12-17T10:04:09.992Z,9.1
2017-12-17T10:05:12.407Z,9.1
2017-12-17T10:06:14.816Z,9.1
2017-12-17T10:07:17.235Z,9.1
2017-12-17T10:08:19.642Z,9.1
2017-12-17T10:09:22.041Z,9.1
2017-12-17T10:10:25.023Z,9.1
2017-12-17T10:11:27.440Z,9.1
2017-12-17T10:12:30.146Z,9.2
2017-12-17T10:13:32.560Z,9.2
2017-12-17T10:14:34.968Z,9.2
2017-12-17T10:15:37.665Z,9.2
2017-12-17T10:16:40.092Z,9.2
2017-12-17T10:17:42.497Z,9.2
2017-12-17T10:18:44.909Z,9.2
2017-12-17T10:19:47.318Z,9.2
2017-12-17T10:20:50.016Z,9.2
2017-12-17T10:21:52.426Z,9.2
2017-12-17T10:22:55.132Z,9.2
2017-12-17T10:23:57.536Z,9.2
2017-12-17T10:24:59.961Z,9.2
2017-12-17T10:26:02.381Z,9.2
2017-12-17T10:27:04.796Z,9.3
2017-12-17T10:28:07.206Z,9.3
2017-12-17T10:29:09.620Z,9.3
2017-12-17T10:30:12.036Z,9.4
2017-12-17T10:31:14.456Z,9.4
2017-12-17T10:32:17.151Z,9.4
2017-12-17T10:33:19.565Z,9.5
2017-12-17T10:34:21.970Z,9.5
2017-12-17T10:35:24.392Z,9.5
2017-12-17T10:36:26.806Z,9.6
2017-12-17T10:37:29.505Z,9.6
2017-12-17T10:38:32.222Z,9.6
2017-12-17T10:39:34.917Z,9.6
2017-12-17T10:40:37.607Z,9.6
2017-12-17T10:41:40.023Z,9.7
2017-12-17T10:42:42.444Z,9.7
2017-12-17T10:43:44.856Z,9.7
2017-12-17T10:44:47.251Z,9.7
2017-12-17T10:45:49.669Z,9.7
2017-12-17T10:46:52.075Z,9.7
2017-12-17T10:47:54.772Z,9.7
2017-12-17T10:48:57.187Z,9.7
2017-12-17T10:49:59.589Z,9.7
2017-12-17T10:51:02.294Z,9.7
2017-12-17T10:52:04.726Z,9.7
2017-12-17T10:53:07.433Z,9.7
2017-12-17T10:54:10.144Z,9.7
2017-12-17T10:55:12.563Z,9.7
2017-12-17T10:56:14.975Z,9.7
2017-12-17T10:57:17.400Z,9.6
2017-12-17T10:58:19.811Z,9.6
2017-12-17T10:59:22.212Z,9.5
2017-12-17T11:00:24.629Z,9.5
2017-12-17T11:01:27.037Z,9.5
2017-12-17T11:02:30.010Z,9.5
2017-12-17T11:03:32.417Z,9.5
2017-12-17T11:04:34.824Z,9.5
2017-12-17T11:05:37.441Z,9.5
2017-12-17T11:06:39.867Z,9.5
2017-12-17T11:07:42.279Z,9.5
2017-12-17T11:08:44.987Z,9.5
2017-12-17T11:09:47.405Z,9.6
2017-12-17T11:10:49.814Z,9.6
2017-12-17T11:11:52.230Z,9.7
2017-12-17T11:12:54.642Z,9.7
2017-12-17T11:13:57.356Z,9.6
2017-12-17T11:14:59.745Z,9.6
2017-12-17T11:16:02.163Z,9.6
2017-12-17T11:17:04.571Z,9.6
2017-12-17T11:18:06.988Z,9.6
2017-12-17T11:19:09.399Z,9.6
2017-12-17T11:20:11.816Z,9.6
2017-12-17T11:21:14.516Z,9.6
2017-12-17T11:22:16.931Z,9.5
2017-12-17T11:23:19.334Z,9.5
2017-12-17T11:24:21.751Z,9.5
2017-12-17T11:25:24.162Z,9.6
2017-12-17T11:26:26.580Z,9.6
2017-12-17T11:27:29.321Z,9.6
2017-12-17T11:28:31.735Z,9.7
2017-12-17T11:29:34.145Z,9.7
2017-12-17T11:30:37.066Z,9.7
2017-12-17T11:31:39.475Z,9.7
2017-12-17T11:32:41.885Z,9.7
2017-12-17T11:33:44.292Z,9.7
2017-12-17T11:34:46.722Z,9.7
2017-12-17T11:35:49.133Z,9.7
2017-12-17T11:36:51.543Z,9.7
2017-12-17T11:37:53.951Z,9.7
2017-12-17T11:38:56.366Z,9.6
2017-12-17T11:39:58.760Z,9.6
2017-12-17T11:41:01.172Z,9.5
2017-12-17T11:42:03.881Z,9.5
2017-12-17T11:43:06.288Z,9.5
2017-12-17T11:44:08.701Z,9.5
2017-12-17T11:45:11.110Z,9.5
2017-12-17T11:46:13.526Z,9.5
2017-12-17T11:47:15.949Z,9.5
2017-12-17T11:48:18.359Z,9.6
2017-12-17T11:49:20.758Z,9.6
2017-12-17T11:50:23.175Z,9.7
2017-12-17T11:51:25.590Z,9.8
2017-12-17T11:52:28.002Z,9.9
2017-12-17T11:53:30.415Z,10
2017-12-17T11:54:32.819Z,10.2
2017-12-17T11:55:35.236Z,10.4
2017-12-17T11:56:37.651Z,10.6
2017-12-17T11:57:40.065Z,10.7
2017-12-17T11:58:42.750Z,10.9
2017-12-17T11:59:45.166Z,11.1
2017-12-17T12:00:47.575Z,11.3
2017-12-17T12:01:49.995Z,11.6
2017-12-17T12:02:52.406Z,11.8
2017-12-17T12:03:54.819Z,12
2017-12-17T12:04:57.231Z,12.1
2017-12-17T12:05:59.656Z,12.3
2017-12-17T12:07:02.070Z,12.3
2017-12-17T12:08:04.479Z,12.4
2017-12-17T12:09:06.896Z,12.4
2017-12-17T12:10:09.303Z,12.4
2017-12-17T12:11:11.720Z,12.4
2017-12-17T12:12:14.135Z,12.3
2017-12-17T12:13:16.555Z,12.3
2017-12-17T12:14:19.247Z,12.2
2017-12-17T12:15:21.675Z,12.2
2017-12-17T12:16:24.099Z,12.2
2017-12-17T12:17:26.516Z,12.2
2017-12-17T12:18:28.930Z,12.1
2017-12-17T12:19:31.340Z,12.1
2017-12-17T12:20:33.757Z,12
2017-12-17T12:21:36.170Z,12
2017-12-17T12:22:38.866Z,11.9
2017-12-17T12:23:41.280Z,11.8
2017-12-17T12:24:43.700Z,11.9
2017-12-17T12:25:46.400Z,11.8
2017-12-17T12:26:48.805Z,11.8
2017-12-17T12:27:51.508Z,11.7
2017-12-17T12:28:54.226Z,11.7
2017-12-17T12:29:56.643Z,11.6
2017-12-17T12:30:59.054Z,11.5
2017-12-17T12:32:02.099Z,11.4
2017-12-17T12:33:04.510Z,11.3
2017-12-17T12:34:06.935Z,11.3
2017-12-17T12:35:09.345Z,11.2
2017-12-17T12:36:11.753Z,11.1
2017-12-17T12:37:14.178Z,11
2017-12-17T12:38:16.884Z,10.9
2017-12-17T12:39:19.292Z,10.9
2017-12-17T12:40:21.711Z,10.8
2017-12-17T12:41:24.130Z,10.8
2017-12-17T12:42:26.544Z,10.8
2017-12-17T12:43:28.965Z,10.7
2017-12-17T12:44:31.374Z,10.7
2017-12-17T12:45:33.790Z,10.6
2017-12-17T12:46:36.212Z,10.6
2017-12-17T12:47:38.919Z,10.6
2017-12-17T12:48:41.336Z,10.5
2017-12-17T12:49:43.744Z,10.5
2017-12-17T12:50:46.157Z,10.5
2017-12-17T12:51:48.563Z,10.5
2017-12-17T12:52:50.973Z,10.5
2017-12-17T12:53:53.392Z,10.5
2017-12-17T12:54:55.817Z,10.5
2017-12-17T12:55:58.233Z,10.5
2017-12-17T12:57:00.653Z,10.5
2017-12-17T12:58:03.064Z,10.5
2017-12-17T12:59:05.482Z,10.5
2017-12-17T13:00:07.891Z,10.5
2017-12-17T13:01:10.301Z,10.5
2017-12-17T13:02:12.716Z,10.5
2017-12-17T13:03:15.414Z,10.4
2017-12-17T13:04:18.100Z,10.4
2017-12-17T13:05:20.523Z,10.3
2017-12-17T13:06:22.937Z,10.3
2017-12-17T13:07:25.355Z,10.2
2017-12-17T13:08:27.761Z,10.2
2017-12-17T13:09:30.451Z,10.2
2017-12-17T13:10:32.871Z,10.2
2017-12-17T13:11:35.283Z,10.2
2017-12-17T13:12:37.738Z,10.1
2017-12-17T13:13:40.447Z,10.1
2017-12-17T13:14:42.855Z,10.1
2017-12-17T13:15:45.564Z,10.1
2017-12-17T13:16:48.271Z,10.1
2017-12-17T13:17:50.965Z,10.1
2017-12-17T13:18:53.375Z,10.1
2017-12-17T13:19:55.806Z,10
2017-12-17T13:20:58.214Z,10
2017-12-17T13:22:00.626Z,10
2017-12-17T13:23:03.331Z,9.9
2017-12-17T13:24:05.734Z,9.8
2017-12-17T13:25:08.150Z,9.8
2017-12-17T13:26:10.566Z,9.8
2017-12-17T13:27:13.276Z,9.8
2017-12-17T13:28:15.972Z,9.7
2017-12-17T13:29:18.384Z,9.7
2017-12-17T13:30:20.789Z,9.6
2017-12-17T13:31:23.209Z,9.6
2017-12-17T13:32:25.657Z,9.6
2017-12-17T13:33:28.032Z,9.5
2017-12-17T13:34:30.450Z,9.5
2017-12-17T13:35:32.870Z,9.5
2017-12-17T13:36:35.281Z,9.5
2017-12-17T13:37:37.695Z,9.4
2017-12-17T13:38:40.105Z,9.5
2017-12-17T13:39:42.524Z,9.4
2017-12-17T13:40:44.938Z,9.4
2017-12-17T13:41:47.349Z,9.4
2017-12-17T13:42:49.757Z,9.5
2017-12-17T13:43:52.185Z,9.5
2017-12-17T13:44:54.601Z,9.5
2017-12-17T13:45:57.586Z,9.5
2017-12-17T13:46:59.993Z,9.4
2017-12-17T13:48:02.413Z,9.4
2017-12-17T13:49:04.823Z,9.4
2017-12-17T13:50:07.243Z,9.3
2017-12-17T13:51:09.661Z,9.3
2017-12-17T13:52:12.081Z,9.3
2017-12-17T13:53:14.499Z,9.3
2017-12-17T13:54:16.919Z,9.3
2017-12-17T13:55:19.317Z,9.3
2017-12-17T13:56:22.011Z,9.2
2017-12-17T13:57:24.431Z,9.2
2017-12-17T13:58:26.841Z,9.2
2017-12-17T13:59:29.250Z,9.2
2017-12-17T14:00:31.662Z,9.2
2017-12-17T14:01:34.353Z,9.2
2017-12-17T14:02:36.807Z,9.2
2017-12-17T14:03:39.185Z,9.3
2017-12-17T14:04:41.898Z,9.3
2017-12-17T14:05:44.317Z,9.3
2017-12-17T14:06:46.732Z,9.3
2017-12-17T14:07:49.428Z,9.4
2017-12-17T14:08:51.844Z,9.4
2017-12-17T14:09:54.254Z,9.4
2017-12-17T14:10:56.664Z,9.4
2017-12-17T14:11:59.064Z,9.4
2017-12-17T14:13:01.478Z,9.4
2017-12-17T14:14:04.178Z,9.3
2017-12-17T14:15:06.586Z,9.3
2017-12-17T14:16:09.002Z,9.3
2017-12-17T14:17:11.403Z,9.3
2017-12-17T14:18:13.816Z,9.3
2017-12-17T14:19:16.238Z,9.2
2017-12-17T14:20:18.755Z,9.3
2017-12-17T14:21:21.597Z,9.2